| time (UTC) | temp F | wind direction | speed MPH | gust MPH | rain 1hr in | rain 24hr in | rain mn in | humidity % | barometer mb |
| 20260502164002 | 61 | 169 | 2.0 | 3.0 | 0.00 | 0.00 | 0.00 | 1013.9 | |
| 20260502163502 | 61 | 179 | 2.0 | 4.0 | 0.00 | 0.00 | 0.00 | 1013.9 | |
| 20260502163024 | 61 | 204 | 2.0 | 4.0 | 0.00 | 0.00 | 0.00 | 1014.3 | |
| 20260502162524 | 61 | 175 | 2.0 | 3.0 | 0.00 | 0.00 | 0.00 | 1013.6 | |
| 20260502162002 | 61 | 178 | 0.0 | 3.0 | 0.00 | 0.00 | 0.00 | 1013.6 | |
| 20260502161502 | 60 | 229 | 2.0 | 4.0 | 0.00 | 0.00 | 0.00 | 1013.2 | |
| 20260502161002 | 60 | 200 | 3.0 | 5.0 | 0.00 | 0.00 | 0.00 | 1013.6 | |
| 20260502160503 | 60 | 198 | 3.0 | 5.0 | 0.00 | 0.00 | 0.00 | 1014.3 | |
| 20260502152003 | 59 | 181 | 2.0 | 4.0 | 0.00 | 0.00 | 0.00 | 1013.9 | |
| 20260502151502 | 59 | 135 | 2.0 | 2.0 | 0.00 | 0.00 | 0.00 | 1013.2 | |
| 20260502151002 | 59 | 68 | 0.0 | 2.0 | 0.00 | 0.00 | 0.00 | 1012.9 | |
| 20260502150504 | 59 | 113 | 0.0 | 3.0 | 0.00 | 0.00 | 0.00 | 1012.9 | |
| 20260502130502 | 58 | 262 | 4.0 | 8.0 | 0.00 | 0.00 | 0.00 | 1012.9 | |
| 20260502123503 | 58 | 329 | 1.0 | 5.0 | 0.00 | 0.00 | 0.00 | 1012.6 | |
| 20260502123004 | 58 | 303 | 2.0 | 5.0 | 0.00 | 0.00 | 0.00 | 1012.6 | |
| 20260502122503 | 58 | 298 | 2.0 | 4.0 | 0.00 | 0.00 | 0.00 | 1012.6 | |
| 20260502122025 | 58 | 295 | 1.0 | 4.0 | 0.00 | 0.00 | 0.00 | 1012.6 | |
| 20260502121502 | 58 | 285 | 3.0 | 5.0 | 0.00 | 0.00 | 0.00 | 1012.9 | |
| 20260502121004 | 58 | 262 | 3.0 | 5.0 | 0.00 | 0.00 | 0.00 | 1012.9 | |
| 20260502120503 | 59 | 255 | 3.0 | 6.0 | 0.00 | 0.00 | 0.00 | 1012.9 | |
| 20260502115502 | 59 | 211 | 3.0 | 5.0 | 0.00 | 0.00 | 0.00 | 1012.6 | |
| 20260502115002 | 59 | 219 | 1.0 | 3.0 | 0.00 | 0.00 | 0.00 | 1012.6 | |
| 20260502114523 | 59 | 289 | 2.0 | 3.0 | 0.00 | 0.00 | 0.00 | 1012.6 | |
| 20260502114002 | 59 | 270 | 0.0 | 2.0 | 0.00 | 0.00 | 0.00 | 1012.6 | |
| 20260502113503 | 59 | 285 | 1.0 | 5.0 | 0.00 | 0.00 | 0.00 | 1012.2 | |
| 20260502113004 | 59 | 139 | 1.0 | 5.0 | 0.00 | 0.00 | 0.00 | 1012.2 | |
| 20260502112504 | 59 | 196 | 2.0 | 5.0 | 0.00 | 0.00 | 0.00 | 1012.2 | |
| 20260502112002 | 59 | 265 | 3.0 | 5.0 | 0.00 | 0.00 | 0.00 | 1012.6 | |
| 20260502111524 | 59 | 233 | 3.0 | 4.0 | 0.00 | 0.00 | 0.00 | 1012.9 | |
| 20260502111023 | 59 | 243 | 2.0 | 4.0 | 0.00 | 0.00 | 0.00 | 1012.9 | |
| 20260502110502 | 58 | 259 | 3.0 | 4.0 | 0.00 | 0.00 | 0.00 | 1011.9 | |
| 20260502110024 | 58 | 280 | 3.0 | 4.0 | 0.00 | 0.00 | 0.00 | 1011.9 | |
| 20260502105502 | 58 | 263 | 2.0 | 4.0 | 0.00 | 0.00 | 0.00 | 1011.9 | |
| 20260502105003 | 58 | 282 | 2.0 | 4.0 | 0.00 | 0.00 | 0.00 | 1012.2 | |
| 20260502104502 | 58 | 290 | 2.0 | 5.0 | 0.00 | 0.00 | 0.00 | 1012.2 | |
| 20260502104024 | 58 | 286 | 2.0 | 5.0 | 0.00 | 0.00 | 0.00 | 1012.2 | |
| 20260502103502 | 58 | 273 | 3.0 | 5.0 | 0.00 | 0.00 | 0.00 | 1012.2 | |
| 20260502103003 | 59 | 279 | 3.0 | 5.0 | 0.00 | 0.00 | 0.00 | 1012.2 | |
| 20260502102503 | 58 | 273 | 3.0 | 5.0 | 0.00 | 0.00 | 0.00 | 1011.9 | |
| 20260502102006 | 58 | 285 | 2.0 | 4.0 | 0.00 | 0.00 | 0.00 | 1012.2 | |
| 20260502101504 | 58 | 305 | 2.0 | 4.0 | 0.00 | 0.00 | 0.00 | 1011.9 | |
| 20260502101003 | 58 | 270 | 2.0 | 3.0 | 0.00 | 0.00 | 0.00 | 1012.2 | |
| 20260502100504 | 58 | 267 | 1.0 | 4.0 | 0.00 | 0.00 | 0.00 | 1011.9 | |
| 20260502091502 | 58 | 274 | 2.0 | 4.0 | 0.00 | 0.00 | 0.00 | 1012.2 | |
| 20260502091003 | 58 | 287 | 3.0 | 4.0 | 0.00 | 0.00 | 0.00 | 1012.6 | |
| 20260502090502 | 58 | 289 | 2.0 | 3.0 | 0.00 | 0.00 | 0.00 | 1012.2 | |
| 20260502071503 | 59 | 290 | 2.0 | 4.0 | 0.00 | 0.00 | 0.00 | 1013.6 | |
| 20260502071002 | 59 | 279 | 2.0 | 4.0 | 0.00 | 0.00 | 0.00 | 1013.6 | |
| 20260502070503 | 59 | 286 | 2.0 | 4.0 | 0.00 | 0.00 | 0.00 | 1013.6 | |
| 20260502070002 | 59 | 284 | 2.0 | 4.0 | 0.00 | 0.00 | 0.00 | 1013.2 | |
| 20260502065502 | 59 | 290 | 2.0 | 4.0 | 0.00 | 0.00 | 0.00 | 1013.2 | |
| 20260502065002 | 60 | 281 | 2.0 | 3.0 | 0.00 | 0.00 | 0.00 | 1013.6 | |
| 20260502064524 | 60 | 283 | 2.0 | 3.0 | 0.00 | 0.00 | 0.00 | 1012.9 | |
| 20260502064003 | 60 | 294 | 2.0 | 3.0 | 0.00 | 0.00 | 0.00 | 1013.2 | |
| 20260502063524 | 60 | 281 | 2.0 | 2.0 | 0.00 | 0.00 | 0.00 | 1013.2 | |
| 20260502063002 | 60 | 303 | 2.0 | 3.0 | 0.00 | 0.00 | 0.00 | 1013.2 | |
| 20260502062503 | 60 | 287 | 2.0 | 3.0 | 0.00 | 0.00 | 0.00 | 1013.2 | |
| 20260502062004 | 60 | 284 | 2.0 | 3.0 | 0.00 | 0.00 | 0.00 | 1013.2 | |
| 20260502061525 | 60 | 278 | 2.0 | 4.0 | 0.00 | 0.00 | 0.00 | 1013.2 | |
| 20260502061024 | 60 | 289 | 2.0 | 5.0 | 0.00 | 0.00 | 0.00 | 1012.9 | |
| 20260502060524 | 60 | 278 | 3.0 | 5.0 | 0.00 | 0.00 | 0.00 | 1012.9 | |
| 20260502060003 | 60 | 292 | 2.0 | 3.0 | 0.00 | 0.00 | 0.00 | 1012.6 | |
| 20260502055503 | 60 | 296 | 2.0 | 5.0 | 0.00 | 0.00 | 0.00 | 1012.9 | |
| 20260502055003 | 60 | 295 | 2.0 | 5.0 | 0.00 | 0.00 | 0.00 | 1013.2 | |
| 20260502054523 | 60 | 312 | 2.0 | 3.0 | 0.00 | 0.00 | 0.00 | 1013.2 | |
| 20260502054003 | 60 | 303 | 2.0 | 4.0 | 0.00 | 0.00 | 0.00 | 1012.9 | |
| 20260502053503 | 60 | 285 | 2.0 | 4.0 | 0.00 | 0.00 | 0.00 | 1013.6 | |
| 20260502053003 | 60 | 293 | 2.0 | 4.0 | 0.00 | 0.00 | 0.00 | 1013.6 | |
| 20260502052503 | 60 | 306 | 2.0 | 5.0 | 0.00 | 0.00 | 0.00 | 1013.6 | |
| 20260502052023 | 60 | 281 | 3.0 | 5.0 | 0.00 | 0.00 | 0.00 | 1013.6 | |
| 20260502051502 | 60 | 290 | 2.0 | 5.0 | 0.00 | 0.00 | 0.00 | 1012.9 | |
| 20260502051003 | 60 | 295 | 2.0 | 4.0 | 0.00 | 0.00 | 0.00 | 1013.2 | |
| 20260502050502 | 60 | 285 | 2.0 | 4.0 | 0.00 | 0.00 | 0.00 | 1012.9 | |
| 20260502050004 | 61 | 293 | 2.0 | 5.0 | 0.00 | 0.00 | 0.00 | 1013.2 | |
| 20260502045504 | 60 | 303 | 3.0 | 5.0 | 0.00 | 0.00 | 0.00 | 1012.9 | |
| 20260502045003 | 60 | 293 | 3.0 | 6.0 | 0.00 | 0.00 | 0.00 | 1013.2 | |
| 20260502044525 | 60 | 287 | 3.0 | 6.0 | 0.00 | 0.00 | 0.00 | 1013.2 | |
| 20260502044003 | 60 | 291 | 3.0 | 6.0 | 0.00 | 0.00 | 0.00 | 1012.6 | |
| 20260502043503 | 61 | 307 | 2.0 | 6.0 | 0.00 | 0.00 | 0.00 | 1012.6 | |
| 20260502043002 | 61 | 309 | 4.0 | 6.0 | 0.00 | 0.00 | 0.00 | 1012.6 | |
| 20260502042504 | 61 | 289 | 3.0 | 7.0 | 0.00 | 0.00 | 0.00 | 1012.9 | |
| 20260502042024 | 61 | 281 | 3.0 | 8.0 | 0.00 | 0.00 | 0.00 | 1012.6 | |
| 20260502041503 | 61 | 281 | 4.0 | 8.0 | 0.00 | 0.00 | 0.00 | 1012.9 | |
| 20260502041003 | 61 | 303 | 3.0 | 6.0 | 0.00 | 0.00 | 0.00 | 1012.6 | |
| 20260502040503 | 61 | 286 | 4.0 | 6.0 | 0.00 | 0.00 | 0.00 | 1012.6 | |
| 20260502040003 | 61 | 285 | 3.0 | 6.0 | 0.00 | 0.00 | 0.00 | 1012.6 | |
| 20260502035503 | 61 | 295 | 4.0 | 7.0 | 0.00 | 0.00 | 0.00 | 1012.9 | |
| 20260502035002 | 62 | 285 | 5.0 | 7.0 | 0.00 | 0.00 | 0.00 | 1012.9 | |
| 20260502034503 | 62 | 282 | 4.0 | 8.0 | 0.00 | 0.00 | 0.00 | 1012.6 | |
| 20260502034002 | 62 | 285 | 5.0 | 9.0 | 0.00 | 0.00 | 0.00 | 1011.9 | |
| 20260502033502 | 62 | 296 | 4.0 | 9.0 | 0.00 | 0.00 | 0.00 | 1012.2 | |
| 20260502033003 | 62 | 273 | 4.0 | 9.0 | 0.00 | 0.00 | 0.00 | 1011.9 | |
| 20260502032525 | 62 | 269 | 5.0 | 10.0 | 0.00 | 0.00 | 0.00 | 1011.9 | |
| 20260502032002 | 63 | 268 | 5.0 | 10.0 | 0.00 | 0.00 | 0.00 | 1011.9 | |
| 20260502031503 | 63 | 258 | 6.0 | 9.0 | 0.00 | 0.00 | 0.00 | 1012.2 | |
| 20260502031003 | 63 | 277 | 3.0 | 10.0 | 0.00 | 0.00 | 0.00 | 1012.2 | |
| 20260502030502 | 63 | 257 | 5.0 | 10.0 | 0.00 | 0.00 | 0.00 | 1012.2 | |
| 20260502030002 | 63 | 275 | 5.0 | 10.0 | 0.00 | 0.00 | 0.00 | 1012.2 | |
| 20260502025502 | 63 | 253 | 7.0 | 11.0 | 0.00 | 0.00 | 0.00 | 1011.9 | |
| 20260502025004 | 64 | 263 | 6.0 | 12.0 | 0.00 | 0.00 | 0.00 | 1012.2 | |
| 20260502024503 | 64 | 274 | 7.0 | 12.0 | 0.00 | 0.00 | 0.00 | 1011.9 | |
| 20260502024002 | 64 | 272 | 7.0 | 12.0 | 0.00 | 0.00 | 0.00 | 1011.5 | |
| 20260502023502 | 65 | 265 | 6.0 | 11.0 | 0.00 | 0.00 | 0.00 | 1011.9 | |
| 20260502023025 | 65 | 265 | 6.0 | 12.0 | 0.00 | 0.00 | 0.00 | 1011.5 | |
| 20260502022524 | 65 | 274 | 7.0 | 12.0 | 0.00 | 0.00 | 0.00 | 1011.5 | |
| 20260502022024 | 65 | 265 | 6.0 | 15.0 | 0.00 | 0.00 | 0.00 | 1011.9 | |
| 20260502021504 | 65 | 269 | 6.0 | 15.0 | 0.00 | 0.00 | 0.00 | 1011.5 | |
| 20260502021004 | 66 | 283 | 6.0 | 12.0 | 0.00 | 0.00 | 0.00 | 1011.2 | |
| 20260502020524 | 67 | 280 | 6.0 | 11.0 | 0.00 | 0.00 | 0.00 | 1011.2 | |
| 20260502020002 | 67 | 281 | 8.0 | 11.0 | 0.00 | 0.00 | 0.00 | 1010.5 | |
| 20260502015523 | 68 | 261 | 6.0 | 12.0 | 0.00 | 0.00 | 0.00 | 1010.5 | |
| 20260502015002 | 68 | 284 | 6.0 | 12.0 | 0.00 | 0.00 | 0.00 | 1010.5 | |
| 20260502014503 | 68 | 281 | 6.0 | 11.0 | 0.00 | 0.00 | 0.00 | 1010.9 | |
| 20260502014004 | 69 | 278 | 7.0 | 11.0 | 0.00 | 0.00 | 0.00 | 1010.9 | |
| 20260502013502 | 69 | 271 | 5.0 | 10.0 | 0.00 | 0.00 | 0.00 | 1011.5 | |
| 20260502013002 | 69 | 279 | 6.0 | 10.0 | 0.00 | 0.00 | 0.00 | 1011.2 | |
| 20260502012503 | 69 | 278 | 6.0 | 10.0 | 0.00 | 0.00 | 0.00 | 1011.2 | |
| 20260502012004 | 70 | 281 | 6.0 | 11.0 | 0.00 | 0.00 | 0.00 | 1010.9 | |
| 20260502011503 | 70 | 284 | 7.0 | 11.0 | 0.00 | 0.00 | 0.00 | 1010.5 | |
| 20260502011002 | 71 | 263 | 5.0 | 10.0 | 0.00 | 0.00 | 0.00 | 1010.5 | |
| 20260502010503 | 71 | 284 | 6.0 | 10.0 | 0.00 | 0.00 | 0.00 | 1010.9 | |
| 20260502010003 | 71 | 277 | 5.0 | 11.0 | 0.00 | 0.00 | 0.00 | 1010.9 | |
| 20260502005502 | 71 | 286 | 6.0 | 12.0 | 0.00 | 0.00 | 0.00 | 1011.2 | |
| 20260502005003 | 72 | 290 | 5.0 | 12.0 | 0.00 | 0.00 | 0.00 | 1011.2 | |
| 20260502004503 | 73 | 249 | 6.0 | 11.0 | 0.00 | 0.00 | 0.00 | 1010.9 | |
| 20260502004003 | 72 | 255 | 7.0 | 11.0 | 0.00 | 0.00 | 0.00 | 1011.2 | |
| 20260502003502 | 73 | 293 | 6.0 | 10.0 | 0.00 | 0.00 | 0.00 | 1010.9 | |
| 20260502003024 | 75 | 224 | 4.0 | 10.0 | 0.00 | 0.00 | 0.00 | 1010.5 | |
| 20260502002503 | 76 | 183 | 4.0 | 10.0 | 0.00 | 0.00 | 0.00 | 1010.5 | |
| 20260502002002 | 76 | 187 | 5.0 | 11.0 | 0.00 | 0.00 | 0.00 | 1010.5 | |
| 20260502001524 | 75 | 179 | 7.0 | 11.0 | 0.00 | 0.00 | 0.00 | 1010.5 | |
| 20260502001002 | 74 | 187 | 3.0 | 11.0 | 0.00 | 0.00 | 0.00 | 1010.9 | |
| 20260502000502 | 73 | 201 | 5.0 | 13.0 | 0.00 | 0.00 | 0.00 | 1010.5 | |
| 20260502000003 | 74 | 203 | 6.0 | 13.0 | 0.00 | 0.00 | 0.00 | 1010.9 | |
| 20260501235503 | 73 | 205 | 4.0 | 13.0 | 0.00 | 0.00 | 0.00 | 1011.2 | |
| 20260501235024 | 73 | 203 | 6.0 | 12.0 | 0.00 | 0.00 | 0.00 | 1011.5 | |
| 20260501234502 | 73 | 209 | 6.0 | 14.0 | 0.00 | 0.00 | 0.00 | 1011.5 | |
| 20260501234003 | 73 | 210 | 8.0 | 15.0 | 0.00 | 0.00 | 0.00 | 1010.9 | |
| 20260501233504 | 73 | 213 | 9.0 | 15.0 | 0.00 | 0.00 | 0.00 | 1010.5 | |
| 20260501233024 | 73 | 228 | 7.0 | 13.0 | 0.00 | 0.00 | 0.00 | 1011.2 | |
| 20260501232502 | 73 | 208 | 7.0 | 12.0 | 0.00 | 0.00 | 0.00 | 1011.2 | |
| 20260501232003 | 73 | 225 | 6.0 | 16.0 | 0.00 | 0.00 | 0.00 | 1011.2 | |
| 20260501231503 | 74 | 214 | 8.0 | 16.0 | 0.00 | 0.00 | 0.00 | 1011.5 | |
| 20260501231003 | 74 | 206 | 7.0 | 13.0 | 0.00 | 0.00 | 0.00 | 1010.9 | |
| 20260501230503 | 74 | 203 | 6.0 | 12.0 | 0.00 | 0.00 | 0.00 | 1010.5 | |
| 20260501230024 | 73 | 192 | 6.0 | 13.0 | 0.00 | 0.00 | 0.00 | 1010.5 | |
| 20260501225503 | 73 | 229 | 9.0 | 13.0 | 0.00 | 0.00 | 0.00 | 1010.9 | |
| 20260501225003 | 74 | 210 | 6.0 | 14.0 | 0.00 | 0.00 | 0.00 | 1011.5 | |
| 20260501224503 | 73 | 194 | 7.0 | 14.0 | 0.00 | 0.00 | 0.00 | 1011.2 | |
| 20260501224003 | 73 | 221 | 6.0 | 12.0 | 0.00 | 0.00 | 0.00 | 1011.2 | |
| 20260501223502 | 72 | 238 | 8.0 | 14.0 | 0.00 | 0.00 | 0.00 | 1011.2 | |
| 20260501223003 | 73 | 243 | 7.0 | 14.0 | 0.00 | 0.00 | 0.00 | 1010.9 | |
| 20260501222523 | 74 | 222 | 6.0 | 14.0 | 0.00 | 0.00 | 0.00 | 1010.9 | |
| 20260501222025 | 74 | 202 | 4.0 | 14.0 | 0.00 | 0.00 | 0.00 | 1011.5 | |
| 20260501221503 | 73 | 227 | 8.0 | 13.0 | 0.00 | 0.00 | 0.00 | 1011.9 | |
| 20260501221003 | 73 | 212 | 6.0 | 12.0 | 0.00 | 0.00 | 0.00 | 1011.5 | |
| 20260501220502 | 74 | 231 | 7.0 | 12.0 | 0.00 | 0.00 | 0.00 | 1011.5 | |
| 20260501220004 | 73 | 187 | 6.0 | 12.0 | 0.00 | 0.00 | 0.00 | 1011.9 | |
| 20260501215503 | 73 | 225 | 8.0 | 14.0 | 0.00 | 0.00 | 0.00 | 1011.2 | |
| 20260501215002 | 73 | 226 | 9.0 | 14.0 | 0.00 | 0.00 | 0.00 | 1011.5 | |
| 20260501214503 | 74 | 207 | 7.0 | 13.0 | 0.00 | 0.00 | 0.00 | 1011.9 | |
| 20260501214003 | 73 | 222 | 8.0 | 12.0 | 0.00 | 0.00 | 0.00 | 1011.9 | |
| 20260501213502 | 73 | 203 | 6.0 | 11.0 | 0.00 | 0.00 | 0.00 | 1011.9 | |
| 20260501213004 | 72 | 218 | 7.0 | 15.0 | 0.00 | 0.00 | 0.00 | 1012.2 | |
| 20260501212504 | 71 | 240 | 7.0 | 15.0 | 0.00 | 0.00 | 0.00 | 1011.9 | |
| 20260501212002 | 72 | 205 | 6.0 | 11.0 | 0.00 | 0.00 | 0.00 | 1012.2 | |
| 20260501211503 | 72 | 222 | 7.0 | 12.0 | 0.00 | 0.00 | 0.00 | 1012.6 | |
| 20260501211003 | 72 | 218 | 7.0 | 13.0 | 0.00 | 0.00 | 0.00 | 1011.9 | |
| 20260501210502 | 72 | 228 | 8.0 | 13.0 | 0.00 | 0.00 | 0.00 | 1012.2 | |
| 20260501210002 | 72 | 212 | 5.0 | 15.0 | 0.00 | 0.00 | 0.00 | 1011.9 | |
| 20260501205504 | 72 | 229 | 9.0 | 15.0 | 0.00 | 0.00 | 0.00 | 1012.2 | |
| 20260501205024 | 72 | 225 | 7.0 | 13.0 | 0.00 | 0.00 | 0.00 | 1011.9 | |
| 20260501204503 | 72 | 216 | 7.0 | 15.0 | 0.00 | 0.00 | 0.00 | 1011.5 | |
| 20260501204024 | 72 | 229 | 6.0 | 18.0 | 0.00 | 0.00 | 0.00 | 1011.5 | |
| 20260501203503 | 73 | 222 | 9.0 | 18.0 | 0.00 | 0.00 | 0.00 | 1012.2 | |
| 20260501203003 | 73 | 218 | 6.0 | 13.0 | 0.00 | 0.00 | 0.00 | 1012.2 | |
| 20260501202503 | 73 | 210 | 7.0 | 13.0 | 0.00 | 0.00 | 0.00 | 1011.9 | |
| 20260501202004 | 73 | 214 | 5.0 | 12.0 | 0.00 | 0.00 | 0.00 | 1011.5 | |
| 20260501201502 | 72 | 221 | 9.0 | 12.0 | 0.00 | 0.00 | 0.00 | 1011.9 | |
| 20260501201004 | 71 | 274 | 3.0 | 12.0 | 0.00 | 0.00 | 0.00 | 1011.9 | |
| 20260501200503 | 72 | 200 | 4.0 | 11.0 | 0.00 | 0.00 | 0.00 | 1011.9 | |
| 20260501200002 | 72 | 243 | 7.0 | 11.0 | 0.00 | 0.00 | 0.00 | 1011.9 | |
| 20260501195504 | 71 | 205 | 3.0 | 11.0 | 0.00 | 0.00 | 0.00 | 1011.9 | |
| 20260501195002 | 71 | 239 | 5.0 | 11.0 | 0.00 | 0.00 | 0.00 | 1012.2 | |
| 20260501194503 | 70 | 263 | 4.0 | 10.0 | 0.00 | 0.00 | 0.00 | 1011.9 | |
| 20260501194003 | 71 | 254 | 5.0 | 9.0 | 0.00 | 0.00 | 0.00 | 1011.5 | |
| 20260501193502 | 72 | 241 | 3.0 | 7.0 | 0.00 | 0.00 | 0.00 | 1011.2 | |
| 20260501193003 | 72 | 164 | 2.0 | 5.0 | 0.00 | 0.00 | 0.00 | 1011.2 | |
| 20260501192503 | 72 | 150 | 3.0 | 10.0 | 0.00 | 0.00 | 0.00 | 1011.5 | |
| 20260501192002 | 71 | 153 | 4.0 | 10.0 | 0.00 | 0.00 | 0.00 | 1012.2 | |
| 20260501191504 | 70 | 223 | 3.0 | 7.0 | 0.00 | 0.00 | 0.00 | 1011.9 | |
| 20260501191003 | 69 | 241 | 3.0 | 6.0 | 0.00 | 0.00 | 0.00 | 1012.2 | |
| 20260501190503 | 68 | 257 | 2.0 | 6.0 | 0.00 | 0.00 | 0.00 | 1012.2 | |
| 20260501190024 | 68 | 213 | 2.0 | 6.0 | 0.00 | 0.00 | 0.00 | 1012.2 | |
| 20260501185503 | 68 | 8 | 2.0 | 8.0 | 0.00 | 0.00 | 0.00 | 1012.6 | |
| 20260501185004 | 68 | 276 | 5.0 | 9.0 | 0.00 | 0.00 | 0.00 | 1013.2 | |
| 20260501184502 | 67 | 250 | 5.0 | 9.0 | 0.00 | 0.00 | 0.00 | 1012.9 | |
| 20260501184004 | 67 | 268 | 6.0 | 9.0 | 0.00 | 0.00 | 0.00 | 1013.2 | |
| 20260501183503 | 67 | 273 | 3.0 | 6.0 | 0.00 | 0.00 | 0.00 | 1012.9 | |
| 20260501183026 | 66 | 7 | 1.0 | 6.0 | 0.00 | 0.00 | 0.00 | 1013.2 | |
| 20260501182502 | 68 | 287 | 2.0 | 6.0 | 0.00 | 0.00 | 0.00 | 1013.2 | |
| 20260501182003 | 69 | 52 | 2.0 | 7.0 | 0.00 | 0.00 | 0.00 | 1013.6 | |
| 20260501181503 | 68 | 80 | 4.0 | 7.0 | 0.00 | 0.00 | 0.00 | 1013.2 | |
| 20260501181024 | 68 | 84 | 4.0 | 9.0 | 0.00 | 0.00 | 0.00 | 1012.9 | |
| 20260501180504 | 67 | 41 | 4.0 | 9.0 | 0.00 | 0.00 | 0.00 | 1013.6 | |
| 20260501180002 | 66 | 82 | 2.0 | 6.0 | 0.00 | 0.00 | 0.00 | 1013.6 | |
| 20260501175503 | 66 | 314 | 1.0 | 6.0 | 0.00 | 0.00 | 0.00 | 1013.2 | |
| 20260501175026 | 66 | 46 | 2.0 | 5.0 | 0.00 | 0.00 | 0.00 | 1013.6 | |
| 20260501174502 | 65 | 2 | 1.0 | 5.0 | 0.00 | 0.00 | 0.00 | 1013.6 | |
| 20260501174003 | 65 | 301 | 1.0 | 5.0 | 0.00 | 0.00 | 0.00 | 1013.9 | |
| 20260501173503 | 67 | 258 | 1.0 | 6.0 | 0.00 | 0.00 | 0.00 | 1013.2 | |
| 20260501173003 | 66 | 154 | 2.0 | 6.0 | 0.00 | 0.00 | 0.00 | 1013.6 | |
| 20260501172504 | 66 | 35 | 2.0 | 4.0 | 0.00 | 0.00 | 0.00 | 1013.9 | |
| 20260501172003 | 65 | 175 | 2.0 | 4.0 | 0.00 | 0.00 | 0.00 | 1013.9 | |
| 20260501171504 | 64 | 314 | 1.0 | 4.0 | 0.00 | 0.00 | 0.00 | 1013.6 | |
| 20260501171003 | 65 | 213 | 2.0 | 5.0 | 0.00 | 0.00 | 0.00 | 1013.6 |